Braunton, United Kingdom
Current Conditions -  °F | °C
As of 1:50 AM on Thursday 27 Nov 2014 (Local Time) from EGDX Reporting Station
Haze Haze  
Wind Chill: 45°   Ceiling: 3000
Heat Index: 45°   Visibility: 1.4mi
Dew Point: 45°   Wind: 2mph
Humidity: 100%   Direction: 20°NNE
Pressure: 29.68"   Gusts: NA
Location:  51.11°N, 4.16°W
Report Text: EGDX 270150Z AUTO 02002KT 2300 BR FEW002/// SCT008/// BKN030/// 07/07 Q1005
Loading
Personal Weather Stations






























Interactive Weather Map New forecast layout! Learn more

10-Day Weather Forecast

Advertisements
Track Severe Weather on mobile